Time;durP1;ratioP1;P1;durP2;ratioP2;P2;SDS_P1;SDS_P2;PMS_P1;PMS_P2;Temp;Humidity;BMP_temperature;BMP_pressure;BME280_temperature;BME280_humidity;BME280_pressure;Samples;Min_cycle;Max_cycle;Signal;HPM_P1;HPM_P2
2021/05/22 00:02:24;;;;;;;0.13;0.13;;;;;;;;;;5033433;28;20025;-79
2021/05/22 00:04:51;;;;;;;0.20;0.20;;;;;;;;;;5033197;28;20029;-78
2021/05/22 00:07:20;;;;;;;0.20;0.20;;;;;;;;;;5032511;28;20033;-79
2021/05/22 00:09:46;;;;;;;0.22;0.22;;;;;;;;;;5032559;28;20436;-79
2021/05/22 00:12:15;;;;;;;0.20;0.20;;;;;;;;;;5032574;28;20029;-78
2021/05/22 00:14:42;;;;;;;0.22;0.22;;;;;;;;;;5015298;28;20057;-78
2021/05/22 00:17:10;;;;;;;0.22;0.20;;;;;;;;;;5032487;28;20028;-78
2021/05/22 00:19:45;;;;;;;0.65;0.30;;;;;;;;;;5032222;28;20068;-79
2021/05/22 00:22:12;;;;;;;0.20;0.20;;;;;;;;;;5032343;28;20521;-78
2021/05/22 00:24:39;;;;;;;0.20;0.20;;;;;;;;;;5015067;28;20034;-79
2021/05/22 00:27:05;;;;;;;0.30;0.30;;;;;;;;;;5031794;28;20048;-78
2021/05/22 00:29:31;;;;;;;0.10;0.10;;;;;;;;;;5030952;28;20033;-78
2021/05/22 00:31:57;;;;;;;0.50;0.32;;;;;;;;;;5014232;28;20049;-78
2021/05/22 00:34:23;;;;;;;0.38;0.38;;;;;;;;;;5032480;28;20026;-79
2021/05/22 00:36:49;;;;;;;0.20;0.20;;;;;;;;;;5031949;28;20037;-78
2021/05/22 00:39:16;;;;;;;1.67;0.30;;;;;;;;;;5013877;28;20045;-79
2021/05/22 00:41:42;;;;;;;0.30;0.30;;;;;;;;;;5032458;28;20029;-79
2021/05/22 00:44:10;;;;;;;0.10;0.10;;;;;;;;;;5031678;28;20052;-78
2021/05/22 00:46:36;;;;;;;0.17;0.17;;;;;;;;;;5032331;28;20438;-79
2021/05/22 00:49:05;;;;;;;0.10;0.10;;;;;;;;;;5013742;28;20045;-79
2021/05/22 00:51:32;;;;;;;0.17;0.17;;;;;;;;;;5027530;28;20049;-79
2021/05/22 00:53:58;;;;;;;0.10;0.10;;;;;;;;;;5032350;28;20040;-78
2021/05/22 00:56:26;;;;;;;0.40;0.40;;;;;;;;;;5031721;28;20025;-79
2021/05/22 00:58:53;;;;;;;0.10;0.10;;;;;;;;;;5031201;28;20033;-79
2021/05/22 01:01:19;;;;;;;0.10;0.10;;;;;;;;;;5031465;28;20438;-78
2021/05/22 01:03:52;;;;;;;0.10;0.10;;;;;;;;;;5031443;28;20029;-78
2021/05/22 01:06:26;;;;;;;0.20;0.15;;;;;;;;;;5030472;28;20030;-78
2021/05/22 01:08:57;;;;;;;0.30;0.30;;;;;;;;;;5030173;28;20026;-78
2021/05/22 01:11:27;;;;;;;0.20;0.20;;;;;;;;;;5031834;28;20033;-79
2021/05/22 01:14:03;;;;;;;0.15;0.15;;;;;;;;;;5031450;28;20037;-78
2021/05/22 01:16:31;;;;;;;0.20;0.20;;;;;;;;;;5029609;28;20112;-78
2021/05/22 01:18:59;;;;;;;0.10;0.10;;;;;;;;;;5029769;28;20160;-78
2021/05/22 01:21:26;;;;;;;0.38;0.30;;;;;;;;;;5031534;28;20041;-79
2021/05/22 01:24:03;;;;;;;0.15;0.15;;;;;;;;;;5031720;28;20558;-78
2021/05/22 01:26:29;;;;;;;0.38;0.30;;;;;;;;;;5030977;28;20038;-78
2021/05/22 01:28:57;;;;;;;0.35;0.32;;;;;;;;;;5030061;28;20109;-79
2021/05/22 01:31:26;;;;;;;0.20;0.20;;;;;;;;;;5018106;28;20044;-78
2021/05/22 01:33:53;;;;;;;0.10;0.10;;;;;;;;;;5031356;28;20029;-79
2021/05/22 01:36:19;;;;;;;0.20;0.20;;;;;;;;;;5031009;28;20109;-78
2021/05/22 01:38:46;;;;;;;0.47;0.47;;;;;;;;;;5029860;28;20528;-78
2021/05/22 01:41:12;;;;;;;0.45;0.45;;;;;;;;;;5030539;28;20120;-78
2021/05/22 01:43:41;;;;;;;0.30;0.30;;;;;;;;;;5031538;28;20049;-79
2021/05/22 01:46:10;;;;;;;0.20;0.20;;;;;;;;;;5031042;28;20029;-78
2021/05/22 01:48:37;;;;;;;1.48;0.20;;;;;;;;;;5029941;28;20032;-79
2021/05/22 01:51:06;;;;;;;0.30;0.20;;;;;;;;;;5030770;28;20033;-78
2021/05/22 01:53:36;;;;;;;0.22;0.17;;;;;;;;;;5030327;28;20396;-79
2021/05/22 01:56:05;;;;;;;0.25;0.20;;;;;;;;;;5033390;28;20041;-78
2021/05/22 01:58:41;;;;;;;0.90;0.20;;;;;;;;;;5050035;28;20032;-79
2021/05/22 02:01:13;;;;;;;0.10;0.10;;;;;;;;;;5050363;28;20119;-78
2021/05/22 02:03:48;;;;;;;0.70;0.28;;;;;;;;;;5050556;28;20032;-79
2021/05/22 02:06:35;;;;;;;0.30;0.30;;;;;;;;;;5050802;28;20049;-79
2021/05/22 02:09:05;;;;;;;0.20;0.20;;;;;;;;;;5049895;28;20029;-78
2021/05/22 02:11:34;;;;;;;;;;;;;;;;;;5050887;28;20029;-79
2021/05/22 02:14:02;;;;;;;0.03;0.03;;;;;;;;;;5050308;28;19904;-78
2021/05/22 02:16:29;;;;;;;0.43;0.43;;;;;;;;;;5050033;28;20029;-79
2021/05/22 02:18:58;;;;;;;0.20;0.20;;;;;;;;;;5032419;28;20108;-78
2021/05/22 02:21:28;;;;;;;0.10;0.10;;;;;;;;;;5049691;28;20108;-78
2021/05/22 02:23:54;;;;;;;0.65;0.40;;;;;;;;;;5051026;28;20021;-79
2021/05/22 02:26:23;;;;;;;0.70;0.22;;;;;;;;;;5050647;28;20053;-79
2021/05/22 02:28:50;;;;;;;0.55;0.20;;;;;;;;;;5049683;28;20021;-79
2021/05/22 02:31:18;;;;;;;0.30;0.20;;;;;;;;;;5041602;28;20053;-79
2021/05/22 02:33:45;;;;;;;0.57;0.20;;;;;;;;;;5031092;28;20025;-79
2021/05/22 02:36:12;;;;;;;0.82;0.30;;;;;;;;;;5012725;28;20064;-78
2021/05/22 02:38:42;;;;;;;0.20;0.20;;;;;;;;;;5030255;28;20109;-79
2021/05/22 02:41:10;;;;;;;0.10;0.10;;;;;;;;;;5012423;28;20092;-78
2021/05/22 02:43:37;;;;;;;0.30;0.30;;;;;;;;;;5030926;28;20080;-78
2021/05/22 02:46:04;;;;;;;0.20;0.20;;;;;;;;;;5029836;28;20034;-78
2021/05/22 02:48:31;;;;;;;0.10;0.10;;;;;;;;;;5030236;28;20033;-78
2021/05/22 02:50:59;;;;;;;0.50;0.20;;;;;;;;;;5030296;28;20066;-79
2021/05/22 02:53:27;;;;;;;0.25;0.20;;;;;;;;;;5033475;28;20025;-78
2021/05/22 02:55:59;;;;;;;0.20;0.20;;;;;;;;;;5033783;28;20030;-79
2021/05/22 02:58:26;;;;;;;0.10;0.10;;;;;;;;;;5033844;28;20105;-78
2021/05/22 03:00:53;;;;;;;0.40;0.30;;;;;;;;;;5033260;28;20053;-79
2021/05/22 03:03:19;;;;;;;0.17;0.10;;;;;;;;;;5033547;28;20137;-78
2021/05/22 03:05:46;;;;;;;0.20;0.20;;;;;;;;;;5033952;28;20060;-79
2021/05/22 03:08:12;;;;;;;0.57;0.57;;;;;;;;;;5015371;28;20033;-79
2021/05/22 03:10:38;;;;;;;0.10;0.10;;;;;;;;;;5034014;28;20115;-78
2021/05/22 03:13:05;;;;;;;0.52;0.52;;;;;;;;;;5033015;28;20030;-78
2021/05/22 03:15:33;;;;;;;0.20;0.20;;;;;;;;;;5033374;28;20492;-78
2021/05/22 03:17:59;;;;;;;0.30;0.30;;;;;;;;;;5032993;28;20033;-78
2021/05/22 03:20:28;;;;;;;0.35;0.30;;;;;;;;;;5033288;28;20436;-79
2021/05/22 03:22:56;;;;;;;0.40;0.40;;;;;;;;;;5033622;28;20057;-79
2021/05/22 03:25:31;;;;;;;0.20;0.20;;;;;;;;;;5017091;28;20452;-79
2021/05/22 03:27:58;;;;;;;0.55;0.55;;;;;;;;;;5032787;28;20025;-79
2021/05/22 03:30:24;;;;;;;0.30;0.30;;;;;;;;;;5032943;28;20564;-78
2021/05/22 03:32:51;;;;;;;0.20;0.20;;;;;;;;;;5033510;28;20038;-79
2021/05/22 03:35:17;;;;;;;0.88;0.32;;;;;;;;;;5032678;28;20029;-78
2021/05/22 03:37:44;;;;;;;0.10;0.10;;;;;;;;;;5033406;28;20125;-78
2021/05/22 03:40:10;;;;;;;0.30;0.30;;;;;;;;;;5032188;28;20038;-79
2021/05/22 03:42:38;;;;;;;0.30;0.30;;;;;;;;;;5033337;28;20096;-78
2021/05/22 03:45:05;;;;;;;0.20;0.20;;;;;;;;;;5015789;28;20038;-78
2021/05/22 03:47:34;;;;;;;0.20;0.20;;;;;;;;;;5032057;28;20030;-79
2021/05/22 03:50:01;;;;;;;1.38;0.85;;;;;;;;;;5032666;28;20025;-79
2021/05/22 03:52:28;;;;;;;0.47;0.47;;;;;;;;;;5030304;28;20097;-78
2021/05/22 03:54:54;;;;;;;0.38;0.38;;;;;;;;;;5015828;28;20072;-78
2021/05/22 03:57:21;;;;;;;1.70;0.52;;;;;;;;;;5014144;28;20449;-78
2021/05/22 03:59:47;;;;;;;0.30;0.30;;;;;;;;;;5015075;28;20033;-79
2021/05/22 04:02:15;;;;;;;0.38;0.38;;;;;;;;;;5032828;28;20065;-78
2021/05/22 04:04:41;;;;;;;0.40;0.20;;;;;;;;;;5032213;28;20021;-79
2021/05/22 04:07:07;;;;;;;0.20;0.20;;;;;;;;;;5032452;28;20033;-78
2021/05/22 04:09:33;;;;;;;0.10;0.10;;;;;;;;;;5032347;28;20032;-79
2021/05/22 04:11:59;;;;;;;0.20;0.20;;;;;;;;;;5031810;28;20031;-78
2021/05/22 04:14:25;;;;;;;0.90;0.45;;;;;;;;;;5032784;28;20025;-78
2021/05/22 04:16:53;;;;;;;0.20;0.20;;;;;;;;;;5032814;28;20029;-78
2021/05/22 04:19:22;;;;;;;0.20;0.20;;;;;;;;;;5031164;28;20488;-79
2021/05/22 04:21:53;;;;;;;0.20;0.20;;;;;;;;;;5032082;28;20022;-78
2021/05/22 04:24:19;;;;;;;0.57;0.55;;;;;;;;;;5032277;28;20025;-78
2021/05/22 04:26:46;;;;;;;0.20;0.20;;;;;;;;;;5032491;28;20029;-79
2021/05/22 04:29:12;;;;;;;0.30;0.30;;;;;;;;;;5013112;28;20033;-78
2021/05/22 04:31:38;;;;;;;0.20;0.20;;;;;;;;;;5042615;28;20051;-78
2021/05/22 04:34:08;;;;;;;0.20;0.20;;;;;;;;;;5051570;28;20079;-78
2021/05/22 04:36:34;;;;;;;0.25;0.20;;;;;;;;;;5052207;28;20033;-79
2021/05/22 04:39:00;;;;;;;0.20;0.20;;;;;;;;;;5051016;28;20083;-78
2021/05/22 04:41:28;;;;;;;0.20;0.20;;;;;;;;;;5052499;28;20432;-79
2021/05/22 04:43:54;;;;;;;0.28;0.22;;;;;;;;;;5033878;28;20040;-79
2021/05/22 04:46:21;;;;;;;0.20;0.20;;;;;;;;;;5051601;28;20503;-78
2021/05/22 04:48:47;;;;;;;0.47;0.47;;;;;;;;;;5051826;28;20468;-78
2021/05/22 04:51:16;;;;;;;0.45;0.45;;;;;;;;;;5043727;28;20103;-78
2021/05/22 04:53:43;;;;;;;0.32;0.30;;;;;;;;;;5015081;28;20029;-79
2021/05/22 04:56:11;;;;;;;0.20;0.20;;;;;;;;;;5031287;28;20491;-79
2021/05/22 04:58:37;;;;;;;0.35;0.35;;;;;;;;;;5031205;28;20032;-79
2021/05/22 05:01:04;;;;;;;0.30;0.30;;;;;;;;;;5030265;28;20109;-78
2021/05/22 05:03:30;;;;;;;0.70;0.55;;;;;;;;;;5031847;28;20482;-78
2021/05/22 05:05:56;;;;;;;0.35;0.35;;;;;;;;;;5031662;28;20060;-78
2021/05/22 05:08:22;;;;;;;0.20;0.20;;;;;;;;;;5030427;28;20033;-78
2021/05/22 05:10:54;;;;;;;0.40;0.40;;;;;;;;;;5013278;28;20021;-78
2021/05/22 05:13:21;;;;;;;0.68;0.20;;;;;;;;;;5030988;28;20033;-78
2021/05/22 05:15:48;;;;;;;0.32;0.30;;;;;;;;;;5013090;28;20051;-78
2021/05/22 05:18:16;;;;;;;0.30;0.30;;;;;;;;;;5031174;28;20083;-78
2021/05/22 05:20:42;;;;;;;0.30;0.30;;;;;;;;;;5013822;28;20088;-79
2021/05/22 05:23:08;;;;;;;0.20;0.20;;;;;;;;;;5030668;28;20021;-79
2021/05/22 05:25:35;;;;;;;0.25;0.25;;;;;;;;;;5031454;28;20461;-78
2021/05/22 05:28:07;;;;;;;0.20;0.20;;;;;;;;;;5030285;28;20022;-78
2021/05/22 05:30:33;;;;;;;0.30;0.30;;;;;;;;;;5031107;28;20037;-79
2021/05/22 05:32:59;;;;;;;0.88;0.30;;;;;;;;;;5030639;28;20052;-78
2021/05/22 05:35:26;;;;;;;0.25;0.20;;;;;;;;;;5028780;28;20036;-78
2021/05/22 05:37:53;;;;;;;0.63;0.63;;;;;;;;;;5013474;28;20037;-79
2021/05/22 05:40:22;;;;;;;0.40;0.40;;;;;;;;;;5013459;28;20504;-78
2021/05/22 05:42:50;;;;;;;0.30;0.30;;;;;;;;;;5031063;28;20091;-78
2021/05/22 05:45:17;;;;;;;0.30;0.30;;;;;;;;;;5031082;28;20455;-79
2021/05/22 05:47:43;;;;;;;0.77;0.30;;;;;;;;;;5030748;28;20028;-79
2021/05/22 05:50:10;;;;;;;0.40;0.40;;;;;;;;;;5013324;28;20036;-78
2021/05/22 05:52:36;;;;;;;0.28;0.28;;;;;;;;;;5013030;28;20022;-79
2021/05/22 05:55:05;;;;;;;0.50;0.45;;;;;;;;;;5031011;28;20506;-78
2021/05/22 05:57:31;;;;;;;0.30;0.30;;;;;;;;;;5013178;28;20025;-78
2021/05/22 06:00:00;;;;;;;0.57;0.40;;;;;;;;;;5030478;28;20037;-79
2021/05/22 06:02:26;;;;;;;0.40;0.30;;;;;;;;;;5032602;28;20029;-79
2021/05/22 06:04:54;;;;;;;0.20;0.20;;;;;;;;;;5033142;28;20029;-78
2021/05/22 06:07:21;;;;;;;0.40;0.40;;;;;;;;;;5050776;28;20026;-79
2021/05/22 06:09:51;;;;;;;0.43;0.40;;;;;;;;;;5050808;28;20032;-78
2021/05/22 06:12:17;;;;;;;0.70;0.47;;;;;;;;;;5050869;28;20102;-78
2021/05/22 06:14:50;;;;;;;0.30;0.30;;;;;;;;;;5050431;28;20032;-78
2021/05/22 06:17:16;;;;;;;0.32;0.32;;;;;;;;;;5050396;28;20568;-78
2021/05/22 06:19:42;;;;;;;0.47;0.32;;;;;;;;;;5050692;28;20037;-78
2021/05/22 06:22:10;;;;;;;0.20;0.20;;;;;;;;;;5050699;28;20053;-78
2021/05/22 06:24:36;;;;;;;0.10;0.10;;;;;;;;;;5049423;28;20033;-79
2021/05/22 06:27:04;;;;;;;0.30;0.25;;;;;;;;;;5050940;28;20094;-78
2021/05/22 06:29:30;;;;;;;0.70;0.50;;;;;;;;;;5053983;28;20455;-79
2021/05/22 06:31:56;;;;;;;0.55;0.40;;;;;;;;;;5053772;28;20116;-78
2021/05/22 06:34:22;;;;;;;0.40;0.40;;;;;;;;;;5053209;28;20025;-78
2021/05/22 06:36:48;;;;;;;0.30;0.30;;;;;;;;;;5054101;28;20494;-78
2021/05/22 06:39:16;;;;;;;0.35;0.20;;;;;;;;;;5053356;28;20029;-78
2021/05/22 06:41:43;;;;;;;0.60;0.43;;;;;;;;;;5054055;28;20079;-78
2021/05/22 06:44:16;;;;;;;0.35;0.35;;;;;;;;;;5036403;28;20112;-78
2021/05/22 06:46:49;;;;;;;0.40;0.40;;;;;;;;;;5053787;28;20025;-79
2021/05/22 06:49:15;;;;;;;0.20;0.20;;;;;;;;;;5035173;28;20029;-78
2021/05/22 06:51:44;;;;;;;0.30;0.30;;;;;;;;;;5053472;28;20387;-79
2021/05/22 06:54:12;;;;;;;0.30;0.30;;;;;;;;;;5053549;28;20526;-78
2021/05/22 06:56:40;;;;;;;0.70;0.40;;;;;;;;;;5054281;28;20099;-79
2021/05/22 06:59:06;;;;;;;0.52;0.52;;;;;;;;;;5034910;28;20021;-78
2021/05/22 07:01:33;;;;;;;0.35;0.35;;;;;;;;;;5054087;28;20045;-78
2021/05/22 07:04:00;;;;;;;1.00;1.00;;;;;;;;;;5053636;28;20021;-78
2021/05/22 07:06:26;;;;;;;0.85;0.50;;;;;;;;;;5053524;28;20029;-78
2021/05/22 07:08:56;;;;;;;1.77;0.38;;;;;;;;;;5053185;28;20025;-79
2021/05/22 07:11:26;;;;;;;0.77;0.68;;;;;;;;;;5053850;28;20021;-79
2021/05/22 07:13:52;;;;;;;0.85;0.43;;;;;;;;;;5053931;28;20124;-78
2021/05/22 07:16:19;;;;;;;0.98;0.60;;;;;;;;;;5052322;28;20033;-78
2021/05/22 07:18:45;;;;;;;0.20;0.20;;;;;;;;;;5052798;28;20028;-79
2021/05/22 07:21:11;;;;;;;0.93;0.63;;;;;;;;;;5052460;28;20033;-78
2021/05/22 07:23:37;;;;;;;1.35;0.60;;;;;;;;;;5036105;28;20037;-79
2021/05/22 07:26:04;;;;;;;1.58;0.60;;;;;;;;;;5053027;28;20031;-78
2021/05/22 07:28:32;;;;;;;0.52;0.43;;;;;;;;;;5052397;28;20056;-79
2021/05/22 07:30:59;;;;;;;0.57;0.30;;;;;;;;;;5049515;28;20377;-78
2021/05/22 07:33:26;;;;;;;0.88;0.88;;;;;;;;;;5033277;28;20056;-78
2021/05/22 07:35:54;;;;;;;0.40;0.40;;;;;;;;;;5033521;28;20037;-78
2021/05/22 07:38:21;;;;;;;0.50;0.50;;;;;;;;;;5032092;28;20433;-79
2021/05/22 07:40:47;;;;;;;1.80;0.50;;;;;;;;;;5033349;28;20030;-78
2021/05/22 07:43:13;;;;;;;0.30;0.30;;;;;;;;;;5032892;28;20030;-78
2021/05/22 07:45:40;;;;;;;0.93;0.50;;;;;;;;;;5033319;28;20477;-79
2021/05/22 07:48:09;;;;;;;0.52;0.52;;;;;;;;;;5032427;28;20087;-78
2021/05/22 07:50:36;;;;;;;0.55;0.55;;;;;;;;;;5032380;28;20053;-78
2021/05/22 07:53:03;;;;;;;0.40;0.32;;;;;;;;;;5015443;28;20052;-78
2021/05/22 07:55:31;;;;;;;0.30;0.30;;;;;;;;;;5032382;28;20029;-78
2021/05/22 07:57:57;;;;;;;0.40;0.40;;;;;;;;;;5032771;28;20057;-79
2021/05/22 08:00:25;;;;;;;0.40;0.40;;;;;;;;;;5013706;28;20049;-78
2021/05/22 08:02:51;;;;;;;0.85;0.50;;;;;;;;;;5032831;28;20468;-78
2021/05/22 08:05:17;;;;;;;0.55;0.50;;;;;;;;;;5032455;28;20035;-79
2021/05/22 08:07:44;;;;;;;1.15;0.60;;;;;;;;;;5014040;28;20033;-79
2021/05/22 08:10:15;;;;;;;1.23;0.65;;;;;;;;;;5031468;28;20021;-78
2021/05/22 08:12:46;;;;;;;1.05;0.52;;;;;;;;;;5032679;28;20036;-78
2021/05/22 08:15:12;;;;;;;0.77;0.50;;;;;;;;;;5031652;28;20033;-78
2021/05/22 08:17:38;;;;;;;0.85;0.85;;;;;;;;;;5032198;28;20092;-78
2021/05/22 08:20:05;;;;;;;0.68;0.57;;;;;;;;;;5031653;28;20033;-78
2021/05/22 08:22:34;;;;;;;0.77;0.68;;;;;;;;;;5031959;28;20369;-78
2021/05/22 08:25:00;;;;;;;0.50;0.50;;;;;;;;;;5032035;28;20044;-78
2021/05/22 08:27:26;;;;;;;0.35;0.35;;;;;;;;;;5014384;28;20030;-78
2021/05/22 08:29:52;;;;;;;0.60;0.60;;;;;;;;;;5031285;28;20198;-79
2021/05/22 08:32:18;;;;;;;1.40;0.52;;;;;;;;;;5043129;28;20134;-79
2021/05/22 08:34:44;;;;;;;0.50;0.40;;;;;;;;;;5034596;28;20044;-78
2021/05/22 08:37:13;;;;;;;0.55;0.55;;;;;;;;;;5051546;28;20456;-78
2021/05/22 08:39:45;;;;;;;0.50;0.50;;;;;;;;;;5051526;28;20029;-78
2021/05/22 08:42:17;;;;;;;0.47;0.47;;;;;;;;;;5051806;28;20021;-79
2021/05/22 08:44:44;;;;;;;0.60;0.60;;;;;;;;;;5052221;28;20032;-79
2021/05/22 08:47:12;;;;;;;0.80;0.80;;;;;;;;;;5051815;28;20124;-78
2021/05/22 08:49:42;;;;;;;0.40;0.40;;;;;;;;;;5050710;28;20021;-79
2021/05/22 08:52:18;;;;;;;0.57;0.43;;;;;;;;;;5036940;28;20055;-78
2021/05/22 08:54:45;;;;;;;0.38;0.38;;;;;;;;;;5014446;28;20029;-78
2021/05/22 08:57:12;;;;;;;0.52;0.52;;;;;;;;;;5031474;28;20029;-78
2021/05/22 08:59:41;;;;;;;1.60;1.15;;;;;;;;;;5031196;28;20484;-78
2021/05/22 09:02:08;;;;;;;0.50;0.50;;;;;;;;;;5031490;28;20125;-78
2021/05/22 09:04:54;;;;;;;1.05;0.95;;;;;;;;;;5031816;28;20397;-78
2021/05/22 09:07:23;;;;;;;1.25;1.15;;;;;;;;;;5031500;28;20029;-78
2021/05/22 09:09:52;;;;;;;0.47;0.47;;;;;;;;;;5031379;28;20032;-78
2021/05/22 09:12:19;;;;;;;0.50;0.47;;;;;;;;;;5014336;28;20103;-78
2021/05/22 09:14:49;;;;;;;0.63;0.55;;;;;;;;;;5032031;28;20021;-79
2021/05/22 09:17:15;;;;;;;0.40;0.40;;;;;;;;;;5030888;28;20029;-78
2021/05/22 09:19:42;;;;;;;0.63;0.63;;;;;;;;;;5031042;28;20025;-79
2021/05/22 09:22:25;;;;;;;0.73;0.73;;;;;;;;;;5031316;28;20087;-78
2021/05/22 09:24:57;;;;;;;0.45;0.45;;;;;;;;;;5031524;28;20025;-78
2021/05/22 09:27:23;;;;;;;0.73;0.50;;;;;;;;;;5030715;28;20095;-78
2021/05/22 09:29:49;;;;;;;0.52;0.50;;;;;;;;;;5030723;28;20060;-79
2021/05/22 09:32:17;;;;;;;1.02;0.60;;;;;;;;;;5030051;28;20073;-78
2021/05/22 09:34:44;;;;;;;0.50;0.50;;;;;;;;;;5030581;28;20120;-79
2021/05/22 09:37:11;;;;;;;1.20;0.95;;;;;;;;;;5030607;28;20021;-78
2021/05/22 09:39:45;;;;;;;0.60;0.60;;;;;;;;;;5030728;28;20022;-79
2021/05/22 09:42:11;;;;;;;0.82;0.82;;;;;;;;;;5030175;28;20547;-78
2021/05/22 09:44:38;;;;;;;0.93;0.55;;;;;;;;;;5031079;28;20476;-79
2021/05/22 09:47:04;;;;;;;0.65;0.63;;;;;;;;;;5030825;28;20029;-79
2021/05/22 09:49:32;;;;;;;0.50;0.50;;;;;;;;;;5030832;28;20364;-78
2021/05/22 09:52:04;;;;;;;0.65;0.65;;;;;;;;;;5012973;28;20049;-78
2021/05/22 09:54:43;;;;;;;1.85;0.95;;;;;;;;;;5031573;28;20025;-78
2021/05/22 09:57:11;;;;;;;0.47;0.47;;;;;;;;;;5030010;28;20026;-78
2021/05/22 09:59:40;;;;;;;1.60;0.80;;;;;;;;;;5030255;28;20388;-78
2021/05/22 10:02:07;;;;;;;0.77;0.77;;;;;;;;;;5032903;28;20376;-78
2021/05/22 10:04:36;;;;;;;0.70;0.50;;;;;;;;;;5034481;28;20667;-78
2021/05/22 10:07:02;;;;;;;0.68;0.68;;;;;;;;;;5034945;28;20033;-78
2021/05/22 10:09:38;;;;;;;1.02;0.68;;;;;;;;;;5016730;28;20031;-78
2021/05/22 10:12:15;;;;;;;1.77;0.73;;;;;;;;;;5034852;28;20028;-78
2021/05/22 10:14:45;;;;;;;0.50;0.50;;;;;;;;;;5034976;28;20048;-79
2021/05/22 10:17:14;;;;;;;0.50;0.50;;;;;;;;;;5054738;28;20105;-78
2021/05/22 10:19:44;;;;;;;0.60;0.55;;;;;;;;;;5053504;28;20021;-78
2021/05/22 10:22:10;;;;;;;1.38;0.55;;;;;;;;;;5053460;28;20045;-79
2021/05/22 10:24:37;;;;;;;0.65;0.65;;;;;;;;;;5053927;28;20025;-79
2021/05/22 10:27:04;;;;;;;0.45;0.45;;;;;;;;;;5036793;28;20055;-78
2021/05/22 10:29:32;;;;;;;0.40;0.40;;;;;;;;;;5053875;28;20094;-79
2021/05/22 10:31:59;;;;;;;1.83;0.80;;;;;;;;;;5053875;28;20124;-78
2021/05/22 10:34:27;;;;;;;1.05;0.80;;;;;;;;;;5053750;28;20499;-78
2021/05/22 10:36:57;;;;;;;0.93;0.82;;;;;;;;;;5054019;28;20021;-78
2021/05/22 10:39:32;;;;;;;2.30;0.88;;;;;;;;;;5053256;28;20036;-78
2021/05/22 10:42:00;;;;;;;1.00;0.90;;;;;;;;;;5054173;28;20044;-78
2021/05/22 10:44:30;;;;;;;0.60;0.60;;;;;;;;;;5035994;28;20094;-78
2021/05/22 10:47:16;;;;;;;1.52;0.47;;;;;;;;;;5053494;28;20029;-78
2021/05/22 10:49:52;;;;;;;1.05;0.50;;;;;;;;;;5053892;28;20487;-78
2021/05/22 10:52:24;;;;;;;0.60;0.60;;;;;;;;;;5053255;28;20028;-79
2021/05/22 10:55:23;;;;;;;1.10;0.70;;;;;;;;;;5054100;28;20016;-78
2021/05/22 10:58:06;;;;;;;1.25;1.20;;;;;;;;;;5053124;28;20033;-78
2021/05/22 11:00:32;;;;;;;0.50;0.50;;;;;;;;;;5053473;28;20379;-78
2021/05/22 11:03:13;;;;;;;1.17;0.70;;;;;;;;;;5053203;28;20044;-78
2021/05/22 11:05:41;;;;;;;1.02;0.70;;;;;;;;;;5035601;28;20037;-78
2021/05/22 11:08:10;;;;;;;0.75;0.57;;;;;;;;;;5034973;28;20371;-78
2021/05/22 11:10:44;;;;;;;1.20;0.52;;;;;;;;;;5054024;28;20029;-78
2021/05/22 11:13:11;;;;;;;0.95;0.70;;;;;;;;;;5052412;28;20021;-78
2021/05/22 11:15:43;;;;;;;0.75;0.50;;;;;;;;;;5053950;28;20049;-78
2021/05/22 11:18:10;;;;;;;0.60;0.60;;;;;;;;;;5052568;28;20028;-78
2021/05/22 11:20:39;;;;;;;1.10;0.65;;;;;;;;;;5053500;28;20484;-79
2021/05/22 11:23:05;;;;;;;0.60;0.60;;;;;;;;;;5053376;28;20526;-78
2021/05/22 11:25:46;;;;;;;0.45;0.43;;;;;;;;;;5053312;28;20059;-78
2021/05/22 11:28:18;;;;;;;0.80;0.80;;;;;;;;;;5052274;28;20044;-78
2021/05/22 11:30:47;;;;;;;1.27;1.10;;;;;;;;;;5035100;28;20033;-78
2021/05/22 11:33:25;;;;;;;1.20;0.88;;;;;;;;;;5052678;28;20123;-79
2021/05/22 11:35:57;;;;;;;0.93;0.60;;;;;;;;;;5053379;28;20144;-79
2021/05/22 11:38:24;;;;;;;0.73;0.45;;;;;;;;;;5052786;28;20108;-79
2021/05/22 11:40:58;;;;;;;1.10;0.60;;;;;;;;;;5052874;28;20539;-79
2021/05/22 11:43:31;;;;;;;0.82;0.47;;;;;;;;;;5053228;28;20040;-78
2021/05/22 11:46:05;;;;;;;1.17;1.00;;;;;;;;;;5052090;28;20024;-78
2021/05/22 11:48:48;;;;;;;0.75;0.47;;;;;;;;;;5034586;28;20052;-78
2021/05/22 11:51:20;;;;;;;1.27;0.85;;;;;;;;;;5051667;28;20029;-78
2021/05/22 11:53:57;;;;;;;0.52;0.43;;;;;;;;;;5052633;28;20021;-79
2021/05/22 11:56:23;;;;;;;0.50;0.50;;;;;;;;;;5052805;28;20040;-78
2021/05/22 11:58:52;;;;;;;0.40;0.40;;;;;;;;;;5052406;28;20067;-78
2021/05/22 12:01:26;;;;;;;1.65;1.05;;;;;;;;;;5051397;28;20479;-79
2021/05/22 12:04:01;;;;;;;0.82;0.60;;;;;;;;;;5052337;28;20070;-79
2021/05/22 12:06:30;;;;;;;1.30;0.93;;;;;;;;;;5053230;28;20100;-79
2021/05/22 12:09:24;;;;;;;1.13;0.50;;;;;;;;;;5051966;28;20033;-78
2021/05/22 12:12:13;;;;;;;0.52;0.52;;;;;;;;;;5052222;28;20498;-79
2021/05/22 12:14:44;;;;;;;0.93;0.80;;;;;;;;;;5052562;28;20479;-79
2021/05/22 12:17:13;;;;;;;0.30;0.30;;;;;;;;;;5052064;28;20032;-78
2021/05/22 12:19:47;;;;;;;0.40;0.40;;;;;;;;;;5052152;28;20051;-79
2021/05/22 12:22:14;;;;;;;1.33;0.80;;;;;;;;;;5051726;28;20498;-78
2021/05/22 12:24:41;;;;;;;0.73;0.40;;;;;;;;;;5052552;28;20036;-78
2021/05/22 12:27:07;;;;;;;0.60;0.47;;;;;;;;;;5051553;28;20547;-78
2021/05/22 12:29:34;;;;;;;0.68;0.68;;;;;;;;;;5051817;28;20029;-78
2021/05/22 12:32:01;;;;;;;2.05;1.05;;;;;;;;;;5051662;28;20041;-78
2021/05/22 12:34:39;;;;;;;0.50;0.50;;;;;;;;;;5051330;28;20021;-79
2021/05/22 12:37:10;;;;;;;1.00;0.90;;;;;;;;;;5050941;28;20033;-78
2021/05/22 12:39:38;;;;;;;0.77;0.60;;;;;;;;;;5051401;28;20025;-79
2021/05/22 12:42:17;;;;;;;0.93;0.40;;;;;;;;;;5051613;28;20045;-79
2021/05/22 12:44:49;;;;;;;1.13;0.82;;;;;;;;;;5051735;28;20024;-79
2021/05/22 12:47:15;;;;;;;0.60;0.60;;;;;;;;;;5051934;28;20040;-78
2021/05/22 12:50:02;;;;;;;0.80;0.73;;;;;;;;;;5034214;28;20104;-78
2021/05/22 12:52:28;;;;;;;0.50;0.45;;;;;;;;;;5051182;28;20163;-78
2021/05/22 12:54:55;;;;;;;1.05;0.82;;;;;;;;;;5051761;28;20025;-79
2021/05/22 12:57:36;;;;;;;0.60;0.60;;;;;;;;;;5050683;28;20025;-79
2021/05/22 13:00:07;;;;;;;0.50;0.50;;;;;;;;;;5042769;28;20244;-78
2021/05/22 13:02:36;;;;;;;0.63;0.55;;;;;;;;;;5051949;28;20033;-78
2021/05/22 13:05:10;;;;;;;1.08;0.95;;;;;;;;;;5049886;28;20065;-78
2021/05/22 13:07:49;;;;;;;0.40;0.40;;;;;;;;;;5051793;28;20104;-78
2021/05/22 13:10:17;;;;;;;0.75;0.50;;;;;;;;;;5050713;28;20116;-78
2021/05/22 13:13:04;;;;;;;0.80;0.73;;;;;;;;;;5051780;28;20028;-79
2021/05/22 13:15:40;;;;;;;0.38;0.38;;;;;;;;;;5050869;28;20033;-79
2021/05/22 13:18:10;;;;;;;0.90;0.50;;;;;;;;;;5033174;28;20040;-78
2021/05/22 13:20:38;;;;;;;1.48;1.33;;;;;;;;;;5050995;28;20037;-79
2021/05/22 13:23:09;;;;;;;1.30;0.88;;;;;;;;;;5051396;28;20047;-78
2021/05/22 13:25:38;;;;;;;0.60;0.60;;;;;;;;;;5051458;28;20119;-79
2021/05/22 13:28:05;;;;;;;0.50;0.50;;;;;;;;;;5049661;28;20072;-78
2021/05/22 13:30:36;;;;;;;0.75;0.57;;;;;;;;;;5051039;28;20029;-79
2021/05/22 13:33:04;;;;;;;0.63;0.57;;;;;;;;;;5050238;28;20135;-78
2021/05/22 13:35:30;;;;;;;0.65;0.65;;;;;;;;;;5051298;28;20086;-79
2021/05/22 13:37:57;;;;;;;0.32;0.30;;;;;;;;;;5032387;28;20363;-79
2021/05/22 13:40:28;;;;;;;0.50;0.50;;;;;;;;;;5050115;28;20395;-78
2021/05/22 13:42:54;;;;;;;0.40;0.40;;;;;;;;;;5051358;28;20025;-78
2021/05/22 13:45:20;;;;;;;2.58;0.90;;;;;;;;;;5051225;28;20087;-78
2021/05/22 13:47:47;;;;;;;0.57;0.57;;;;;;;;;;5050937;28;20028;-78
2021/05/22 13:50:14;;;;;;;0.82;0.65;;;;;;;;;;5050370;28;20037;-79
2021/05/22 13:52:51;;;;;;;0.70;0.60;;;;;;;;;;5033152;28;20025;-78
2021/05/22 13:55:21;;;;;;;0.80;0.80;;;;;;;;;;5050753;28;20033;-79
2021/05/22 13:57:48;;;;;;;2.45;1.15;;;;;;;;;;5050814;28;20036;-79
2021/05/22 14:00:17;;;;;;;0.38;0.38;;;;;;;;;;5031854;28;20046;-78
2021/05/22 14:02:46;;;;;;;0.65;0.60;;;;;;;;;;5033618;28;20029;-78
2021/05/22 14:05:13;;;;;;;0.70;0.70;;;;;;;;;;5032597;28;20061;-79
2021/05/22 14:07:39;;;;;;;1.38;0.57;;;;;;;;;;5051121;28;20025;-79
2021/05/22 14:10:07;;;;;;;2.05;1.15;;;;;;;;;;5049917;28;20107;-78
2021/05/22 14:12:35;;;;;;;0.57;0.50;;;;;;;;;;5050971;28;20364;-79
2021/05/22 14:15:01;;;;;;;2.03;0.70;;;;;;;;;;5050070;28;20358;-78
2021/05/22 14:17:29;;;;;;;1.48;0.57;;;;;;;;;;5050427;28;20117;-78
2021/05/22 14:19:55;;;;;;;1.30;0.70;;;;;;;;;;5050434;28;20036;-78
2021/05/22 14:22:21;;;;;;;0.55;0.47;;;;;;;;;;5050362;28;20037;-78
2021/05/22 14:24:51;;;;;;;0.65;0.57;;;;;;;;;;5050724;28;20037;-78
2021/05/22 14:27:18;;;;;;;1.23;1.13;;;;;;;;;;5049523;28;20537;-78
2021/05/22 14:29:44;;;;;;;0.50;0.50;;;;;;;;;;5049558;28;20033;-78
2021/05/22 14:32:11;;;;;;;0.40;0.40;;;;;;;;;;5048555;28;20146;-78
2021/05/22 14:34:38;;;;;;;0.75;0.65;;;;;;;;;;5049860;28;20021;-78
2021/05/22 14:37:04;;;;;;;0.50;0.40;;;;;;;;;;5049888;28;20025;-78
2021/05/22 14:39:31;;;;;;;0.90;0.90;;;;;;;;;;5049659;28;20088;-78
2021/05/22 14:41:57;;;;;;;0.85;0.50;;;;;;;;;;5049153;28;20492;-78
2021/05/22 14:44:23;;;;;;;0.75;0.50;;;;;;;;;;5050142;28;20021;-78
2021/05/22 14:46:51;;;;;;;0.40;0.35;;;;;;;;;;5049797;28;20032;-78
2021/05/22 14:49:17;;;;;;;0.40;0.40;;;;;;;;;;5034265;28;20036;-78
2021/05/22 14:51:43;;;;;;;1.08;0.77;;;;;;;;;;5042384;28;20025;-78
2021/05/22 14:54:09;;;;;;;0.85;0.60;;;;;;;;;;5033431;28;20029;-78